College Park, South Carolina
Current Conditions -  °F | °C
As of 4:56 PM on Tuesday 21 Oct 2014 (Local Time) from KCHS Reporting Station
Few Clouds Few Clouds  
Wind Chill: 79°   Ceiling: Unl
Heat Index: 79°   Visibility: 10mi
Dew Point: 54°   Wind: 9mph
Humidity: 42%   Direction: 280°W
Pressure: 29.87"   Gusts: NA
Location:  32.9859°N, 80.1166°W
Report Text: KCHS 212056Z 28008KT 10SM FEW055 26/12 A2987 RMK AO2 SLP113 T02610122 55013
Loading
Personal Weather Stations






























Interactive Weather Map
Tropical Storm Tracking
New forecast layout! Learn more

10-Day Weather Forecast

Advertisements
Track Severe Weather on mobile